Terminal Aerodrome Forecast
Issued by NWS Northern Indiana

Home | Current Version | Previous Version | Graphics & Text | Print | Product List | Glossary On
Versions: 1 2 3 4 5 6 7 8 9 10 11 12 13
786
FTUS43 KIWX 151134
TAFFWA
TAF
KFWA 151134Z 1512/1612 22010KT P6SM SCT025 OVC035
     FM151400 24011G17KT P6SM BKN025
     FM151800 27014G24KT P6SM OVC030
     FM160000 25011KT P6SM BKN035=

USA.gov is the U.S. government's official web portal to all federal, state and local government web resources and services.